createdAt,value
2022-08-04T00:00:01.663Z,19.05
2022-08-04T00:03:02.966Z,18.99
2022-08-04T00:05:40.072Z,18.96
2022-08-04T00:08:50.038Z,18.92
2022-08-04T00:11:23.386Z,18.86
2022-08-04T00:14:02.827Z,18.82
2022-08-04T00:16:38.343Z,18.78
2022-08-04T00:19:17.617Z,18.74
2022-08-04T00:22:01.048Z,18.71
2022-08-04T00:24:30.551Z,18.67
2022-08-04T00:26:58.417Z,18.63
2022-08-04T00:29:27.636Z,18.60
2022-08-04T00:31:57.867Z,18.57
2022-08-04T00:34:28.158Z,18.55
2022-08-04T00:36:57.160Z,18.51
2022-08-04T00:39:25.977Z,18.48
2022-08-04T00:41:57.091Z,18.46
2022-08-04T00:44:54.035Z,18.43
2022-08-04T00:47:30.509Z,18.39
2022-08-04T00:50:07.585Z,18.35
2022-08-04T00:52:47.477Z,18.31
2022-08-04T00:55:34.090Z,18.26
2022-08-04T00:58:26.547Z,18.21
2022-08-04T01:01:07.184Z,18.17
2022-08-04T01:04:03.833Z,18.14
2022-08-04T01:06:38.238Z,18.10
2022-08-04T01:09:23.433Z,18.06
2022-08-04T01:12:35.886Z,18.02
2022-08-04T01:15:14.814Z,17.99
2022-08-04T01:18:00.370Z,17.96
2022-08-04T01:20:34.520Z,17.92
2022-08-04T01:23:27.067Z,17.89
2022-08-04T01:26:43.538Z,17.85
2022-08-04T01:29:16.953Z,17.83
2022-08-04T01:32:06.902Z,17.80
2022-08-04T01:34:37.265Z,17.79
2022-08-04T01:37:11.006Z,17.78
2022-08-04T01:39:49.883Z,17.76
2022-08-04T01:42:31.304Z,17.73
2022-08-04T01:45:07.115Z,17.70
2022-08-04T01:47:36.626Z,17.67
2022-08-04T01:50:10.379Z,17.64
2022-08-04T01:52:39.910Z,17.62
2022-08-04T01:55:10.353Z,17.59
2022-08-04T01:57:43.068Z,17.58
2022-08-04T02:00:12.932Z,17.57
2022-08-04T02:02:41.279Z,17.55
2022-08-04T02:05:11.791Z,17.54
2022-08-04T02:08:04.426Z,17.53
2022-08-04T02:10:59.930Z,17.51
2022-08-04T02:13:36.644Z,17.51
2022-08-04T02:16:31.594Z,17.49
2022-08-04T02:19:08.268Z,17.47
2022-08-04T02:21:45.428Z,17.46
2022-08-04T02:24:15.604Z,17.44
2022-08-04T02:26:48.769Z,17.41
2022-08-04T02:29:21.616Z,17.38
2022-08-04T02:32:24.018Z,17.34
2022-08-04T02:34:55.366Z,17.30
2022-08-04T02:37:24.886Z,17.25
2022-08-04T02:39:54.263Z,17.21
2022-08-04T02:42:21.942Z,17.17
2022-08-04T02:44:51.712Z,17.14
2022-08-04T02:47:21.567Z,17.08
2022-08-04T02:49:51.385Z,17.02
2022-08-04T02:52:20.162Z,17.00
2022-08-04T02:54:52.141Z,16.95
2022-08-04T02:57:24.506Z,16.91
2022-08-04T03:00:13.384Z,16.86
2022-08-04T03:03:03.556Z,16.82
2022-08-04T03:06:16.114Z,16.81
2022-08-04T03:09:23.971Z,16.83
2022-08-04T03:12:19.342Z,16.88
2022-08-04T03:15:10.285Z,16.92
2022-08-04T03:17:52.552Z,16.97
2022-08-04T03:20:45.180Z,17.04
2022-08-04T03:23:18.785Z,17.11
2022-08-04T03:26:06.457Z,17.16
2022-08-04T03:29:33.160Z,17.20
2022-08-04T03:32:13.639Z,17.23
2022-08-04T03:35:02.477Z,17.24
2022-08-04T03:37:53.428Z,17.29
2022-08-04T03:40:33.623Z,17.34
2022-08-04T03:43:59.322Z,17.40
2022-08-04T03:46:21.651Z,17.45
2022-08-04T03:49:08.853Z,17.50
2022-08-04T03:52:06.173Z,17.56
2022-08-04T03:54:39.936Z,17.62
2022-08-04T03:57:32.547Z,17.65
2022-08-04T04:00:05.656Z,17.68
2022-08-04T04:02:45.862Z,17.70
2022-08-04T04:05:58.800Z,17.72
2022-08-04T04:08:49.902Z,17.75
2022-08-04T04:11:29.625Z,17.80
2022-08-04T04:14:33.624Z,17.85
2022-08-04T04:17:08.831Z,17.96
2022-08-04T04:19:59.973Z,18.08
2022-08-04T04:22:42.715Z,18.18
2022-08-04T04:25:31.454Z,18.33
2022-08-04T04:28:44.266Z,18.46
2022-08-04T04:31:11.905Z,18.60
2022-08-04T04:33:50.558Z,18.71
2022-08-04T04:36:49.483Z,18.83
2022-08-04T04:39:33.369Z,18.93
2022-08-04T04:42:18.387Z,19.03
2022-08-04T04:45:25.966Z,19.15
2022-08-04T04:48:12.347Z,19.25
2022-08-04T04:51:05.545Z,19.35
2022-08-04T04:53:48.261Z,19.49
2022-08-04T04:56:29.622Z,19.60
2022-08-04T04:58:58.046Z,19.68
2022-08-04T05:01:38.136Z,19.78
2022-08-04T05:04:08.836Z,19.88
2022-08-04T05:06:54.627Z,20.00
2022-08-04T05:09:52.420Z,20.08
2022-08-04T05:14:32.264Z,20.19
2022-08-04T05:15:15.472Z,20.31
2022-08-04T05:17:50.448Z,20.44
2022-08-04T05:20:24.663Z,20.61
2022-08-04T05:22:58.268Z,20.73
2022-08-04T05:25:55.047Z,20.84
2022-08-04T05:28:34.315Z,20.96
2022-08-04T05:31:11.257Z,21.04
2022-08-04T05:33:54.818Z,21.13
2022-08-04T05:36:41.124Z,21.24
2022-08-04T05:39:25.371Z,21.42
2022-08-04T05:41:55.172Z,21.56
2022-08-04T05:44:25.356Z,21.66
2022-08-04T05:46:58.183Z,21.76
2022-08-04T05:49:29.735Z,21.81
2022-08-04T05:52:01.809Z,21.84
2022-08-04T05:54:33.735Z,21.86
2022-08-04T05:57:04.591Z,21.83
2022-08-04T05:59:35.207Z,21.93
2022-08-04T06:02:04.887Z,21.96
2022-08-04T06:04:38.916Z,21.93
2022-08-04T06:07:07.270Z,21.99
2022-08-04T06:09:35.308Z,22.19
2022-08-04T06:12:07.375Z,22.40
2022-08-04T06:14:46.554Z,22.55
2022-08-04T06:18:33.262Z,22.64
2022-08-04T06:20:20.150Z,22.75
2022-08-04T06:22:54.483Z,22.82
2022-08-04T06:25:28.526Z,23.04
2022-08-04T06:27:57.021Z,23.30
2022-08-04T06:30:27.352Z,23.52
2022-08-04T06:33:03.368Z,23.75
2022-08-04T06:35:33.899Z,23.96
2022-08-04T06:38:03.152Z,24.08
2022-08-04T06:40:34.102Z,24.20
2022-08-04T06:43:06.710Z,24.34
2022-08-04T06:45:37.408Z,24.51
2022-08-04T06:48:06.844Z,24.68
2022-08-04T06:51:30.949Z,24.83
2022-08-04T06:53:25.696Z,24.79
2022-08-04T06:55:54.605Z,24.93
2022-08-04T06:58:23.308Z,25.15
2022-08-04T07:00:51.833Z,25.38
2022-08-04T07:03:21.628Z,25.57
2022-08-04T07:05:50.708Z,25.68
2022-08-04T07:08:19.519Z,25.75
2022-08-04T07:10:47.863Z,25.82
2022-08-04T07:13:16.007Z,25.95
2022-08-04T07:15:45.846Z,26.10
2022-08-04T07:18:14.003Z,26.25
2022-08-04T07:20:46.287Z,26.45
2022-08-04T07:23:17.645Z,26.56
2022-08-04T07:25:59.422Z,26.62
2022-08-04T07:28:30.908Z,26.71
2022-08-04T07:30:59.033Z,26.83
2022-08-04T07:33:27.829Z,27.02
2022-08-04T07:36:05.661Z,27.26
2022-08-04T07:38:48.626Z,27.47
2022-08-04T07:41:40.689Z,27.62
2022-08-04T07:44:09.648Z,27.68
2022-08-04T07:46:37.626Z,27.73
2022-08-04T07:49:06.109Z,27.79
2022-08-04T07:51:35.554Z,27.86
2022-08-04T07:54:05.414Z,27.98
2022-08-04T07:56:36.574Z,28.15
2022-08-04T07:59:04.905Z,28.23
2022-08-04T08:01:35.347Z,28.41
2022-08-04T08:04:06.609Z,28.53
2022-08-04T08:06:42.698Z,28.58
2022-08-04T08:09:16.439Z,28.60
2022-08-04T08:12:37.270Z,28.70
2022-08-04T08:14:38.033Z,28.80
2022-08-04T08:17:05.971Z,28.86
2022-08-04T08:19:37.033Z,28.96
2022-08-04T08:22:05.404Z,29.05
2022-08-04T08:24:37.262Z,29.17
2022-08-04T08:27:06.899Z,29.31
2022-08-04T08:29:35.514Z,29.38
2022-08-04T08:32:08.490Z,29.37
2022-08-04T08:34:38.860Z,29.45
2022-08-04T08:37:16.355Z,29.51
2022-08-04T08:39:52.891Z,29.55
2022-08-04T08:42:29.760Z,29.62
2022-08-04T08:45:17.856Z,29.73
2022-08-04T08:48:13.170Z,29.94
2022-08-04T08:51:02.168Z,30.12
2022-08-04T08:53:29.823Z,30.40
2022-08-04T08:56:32.348Z,30.47
2022-08-04T08:59:27.385Z,30.30
2022-08-04T09:02:20.093Z,30.32
2022-08-04T09:04:53.861Z,30.49
2022-08-04T09:07:21.969Z,30.53
2022-08-04T09:10:13.679Z,30.81
2022-08-04T09:13:05.171Z,33.03
2022-08-04T09:15:45.643Z,36.21
2022-08-04T09:18:32.898Z,38.68
2022-08-04T09:21:06.959Z,40.98
2022-08-04T09:23:59.107Z,42.46
2022-08-04T09:26:32.574Z,44.07
2022-08-04T09:29:18.979Z,45.73
2022-08-04T09:32:06.951Z,48.28
2022-08-04T09:35:03.108Z,50.42
2022-08-04T09:37:58.314Z,51.80
2022-08-04T09:40:52.706Z,54.33
2022-08-04T09:44:48.792Z,55.51
2022-08-04T09:46:55.749Z,56.43
2022-08-04T09:49:47.849Z,57.55
2022-08-04T09:52:46.548Z,58.53
2022-08-04T09:55:53.470Z,60.16
2022-08-04T09:58:28.885Z,60.41
2022-08-04T10:01:03.259Z,59.84
2022-08-04T10:03:35.637Z,59.99
2022-08-04T10:06:40.676Z,59.84
2022-08-04T10:09:33.766Z,60.12
2022-08-04T10:12:01.335Z,61.14
2022-08-04T10:14:41.495Z,60.71
2022-08-04T10:17:24.431Z,60.87
2022-08-04T10:20:07.862Z,60.93
2022-08-04T10:23:09.216Z,60.85
2022-08-04T10:26:06.077Z,60.80
2022-08-04T10:28:31.624Z,60.80
2022-08-04T10:31:03.725Z,61.38
2022-08-04T10:33:34.549Z,61.26
2022-08-04T10:36:06.691Z,62.18
2022-08-04T10:38:45.240Z,61.88
2022-08-04T10:41:17.147Z,61.91
2022-08-04T10:44:24.632Z,61.54
2022-08-04T10:47:02.099Z,60.46
2022-08-04T10:49:38.412Z,60.64
2022-08-04T10:52:17.440Z,61.92
2022-08-04T10:55:03.820Z,62.76
2022-08-04T10:57:37.475Z,63.39
2022-08-04T11:00:12.282Z,63.50
2022-08-04T11:02:45.418Z,63.64
2022-08-04T11:05:24.764Z,59.91
2022-08-04T11:08:10.038Z,59.22
2022-08-04T11:10:46.150Z,59.97
2022-08-04T11:13:29.474Z,59.70
2022-08-04T11:16:03.126Z,58.08
2022-08-04T11:18:45.764Z,56.02
2022-08-04T11:21:23.394Z,53.15
2022-08-04T11:24:03.628Z,51.43
2022-08-04T11:26:49.036Z,50.09
2022-08-04T11:29:24.117Z,48.61
2022-08-04T11:31:52.640Z,46.22
2022-08-04T11:34:25.310Z,44.74
2022-08-04T11:37:18.540Z,44.28
2022-08-04T11:39:52.329Z,43.99
2022-08-04T11:42:23.784Z,43.46
2022-08-04T11:45:07.080Z,42.52
2022-08-04T11:48:07.526Z,41.19
2022-08-04T11:50:39.450Z,39.95
2022-08-04T11:53:08.482Z,39.06
2022-08-04T11:56:06.898Z,38.27
2022-08-04T11:58:25.327Z,37.66
2022-08-04T12:00:59.259Z,37.39
2022-08-04T12:03:45.154Z,37.25
2022-08-04T12:06:37.479Z,36.95
2022-08-04T12:09:36.933Z,36.51
2022-08-04T12:12:17.650Z,35.90
2022-08-04T12:15:00.098Z,35.34
2022-08-04T12:17:37.045Z,35.07
2022-08-04T12:20:34.332Z,34.94
2022-08-04T12:23:16.094Z,34.86
2022-08-04T12:25:48.631Z,34.59
2022-08-04T12:28:41.362Z,34.38
2022-08-04T12:31:25.437Z,34.22
2022-08-04T12:34:07.402Z,33.96
2022-08-04T12:36:56.269Z,33.47
2022-08-04T12:39:26.241Z,32.98
2022-08-04T12:42:11.573Z,32.62
2022-08-04T12:44:41.572Z,32.34
2022-08-04T12:47:26.916Z,32.06
2022-08-04T12:50:02.622Z,31.91
2022-08-04T12:53:01.074Z,31.86
2022-08-04T12:55:31.905Z,32.12
2022-08-04T12:58:00.213Z,31.95
2022-08-04T13:00:41.353Z,31.89
2022-08-04T13:03:12.680Z,31.67
2022-08-04T13:05:41.925Z,31.58
2022-08-04T13:08:11.938Z,31.44
2022-08-04T13:10:42.934Z,31.35
2022-08-04T13:13:19.632Z,31.32
2022-08-04T13:16:02.175Z,31.08
2022-08-04T13:18:34.660Z,30.75
2022-08-04T13:21:19.469Z,30.55
2022-08-04T13:24:20.522Z,30.31
2022-08-04T13:27:14.859Z,30.17
2022-08-04T13:30:00.083Z,30.15
2022-08-04T13:32:32.361Z,30.12
2022-08-04T13:35:01.841Z,30.11
2022-08-04T13:37:35.401Z,30.11
2022-08-04T13:40:05.613Z,30.05
2022-08-04T13:42:37.541Z,29.98
2022-08-04T13:45:07.456Z,29.94
2022-08-04T13:47:38.304Z,29.95
2022-08-04T13:50:27.303Z,29.99
2022-08-04T13:52:57.265Z,30.02
2022-08-04T13:55:33.635Z,29.97
2022-08-04T13:58:09.399Z,29.95
2022-08-04T14:00:44.742Z,29.85
2022-08-04T14:03:24.229Z,29.80
2022-08-04T14:06:11.818Z,29.86
2022-08-04T14:08:52.673Z,29.96
2022-08-04T14:12:06.216Z,29.94
2022-08-04T14:14:33.984Z,29.98
2022-08-04T14:17:19.781Z,30.05
2022-08-04T14:19:53.246Z,30.12
2022-08-04T14:22:30.140Z,30.09
2022-08-04T14:25:00.805Z,30.06
2022-08-04T14:27:29.136Z,30.11
2022-08-04T14:29:57.738Z,30.26
2022-08-04T14:32:26.493Z,30.71
2022-08-04T14:34:54.546Z,31.35
2022-08-04T14:37:23.383Z,31.48
2022-08-04T14:40:18.438Z,31.22
2022-08-04T14:42:55.429Z,30.95
2022-08-04T14:45:34.355Z,30.84
2022-08-04T14:48:13.715Z,30.84
2022-08-04T14:50:46.360Z,30.99
2022-08-04T14:53:19.889Z,31.16
2022-08-04T14:55:49.762Z,31.13
2022-08-04T14:58:35.109Z,31.08
2022-08-04T15:01:12.008Z,31.11
2022-08-04T15:03:50.630Z,30.82
2022-08-04T15:06:26.492Z,30.42
2022-08-04T15:08:58.390Z,30.34
2022-08-04T15:11:26.710Z,30.40
2022-08-04T15:13:56.575Z,30.47
2022-08-04T15:16:26.952Z,30.52
2022-08-04T15:18:56.705Z,30.43
2022-08-04T15:21:28.146Z,30.40
2022-08-04T15:23:57.408Z,30.40
2022-08-04T15:26:37.140Z,30.43
2022-08-04T15:29:24.209Z,30.56
2022-08-04T15:32:07.772Z,30.61
2022-08-04T15:34:51.081Z,30.47
2022-08-04T15:37:27.512Z,30.21
2022-08-04T15:40:09.853Z,29.97
2022-08-04T15:43:15.047Z,29.73
2022-08-04T15:46:32.885Z,29.51
2022-08-04T15:48:41.937Z,29.40
2022-08-04T15:51:15.070Z,29.29
2022-08-04T15:54:01.835Z,29.20
2022-08-04T15:56:31.038Z,29.09
2022-08-04T15:58:59.017Z,29.00
2022-08-04T16:01:27.991Z,28.94
2022-08-04T16:03:59.616Z,28.90
2022-08-04T16:06:30.550Z,28.83
2022-08-04T16:08:59.563Z,28.77
2022-08-04T16:11:32.582Z,28.70
2022-08-04T16:14:00.792Z,28.62
2022-08-04T16:16:33.451Z,28.52
2022-08-04T16:19:08.490Z,28.49
2022-08-04T16:21:48.793Z,28.43
2022-08-04T16:24:35.647Z,28.39
2022-08-04T16:27:05.165Z,28.31
2022-08-04T16:29:40.321Z,28.23
2022-08-04T16:32:19.595Z,28.16
2022-08-04T16:34:55.296Z,28.09
2022-08-04T16:37:32.289Z,28.04
2022-08-04T16:40:29.791Z,27.98
2022-08-04T16:43:06.349Z,27.91
2022-08-04T16:45:58.740Z,27.85
2022-08-04T16:48:31.628Z,27.80
2022-08-04T16:51:10.162Z,27.75
2022-08-04T16:53:57.899Z,27.69
2022-08-04T16:56:34.776Z,27.64
2022-08-04T16:59:11.341Z,27.58
2022-08-04T17:01:50.025Z,27.52
2022-08-04T17:04:18.048Z,27.45
2022-08-04T17:06:46.719Z,27.39
2022-08-04T17:09:19.527Z,27.33
2022-08-04T17:11:48.489Z,27.27
2022-08-04T17:14:25.511Z,27.19
2022-08-04T17:16:56.519Z,27.12
2022-08-04T17:19:26.472Z,27.03
2022-08-04T17:22:06.005Z,26.93
2022-08-04T17:24:36.419Z,26.82
2022-08-04T17:28:18.434Z,26.69
2022-08-04T17:29:52.743Z,26.57
2022-08-04T17:32:22.622Z,26.47
2022-08-04T17:34:53.660Z,26.37
2022-08-04T17:37:40.211Z,26.25
2022-08-04T17:40:18.451Z,26.11
2022-08-04T17:44:03.676Z,25.94
2022-08-04T17:46:33.995Z,25.76
2022-08-04T17:49:10.852Z,25.57
2022-08-04T17:52:05.898Z,25.41
2022-08-04T17:54:38.934Z,25.26
2022-08-04T17:57:13.465Z,25.11
2022-08-04T17:59:56.479Z,24.97
2022-08-04T18:02:32.156Z,24.80
2022-08-04T18:05:07.698Z,24.63
2022-08-04T18:08:38.460Z,24.46
2022-08-04T18:10:41.701Z,24.27
2022-08-04T18:13:22.222Z,24.09
2022-08-04T18:16:02.642Z,23.93
2022-08-04T18:18:30.902Z,23.75
2022-08-04T18:21:03.504Z,23.60
2022-08-04T18:23:33.400Z,23.45
2022-08-04T18:26:03.520Z,23.31
2022-08-04T18:28:33.653Z,23.17
2022-08-04T18:31:02.306Z,23.04
2022-08-04T18:33:40.868Z,22.91
2022-08-04T18:36:36.693Z,22.78
2022-08-04T18:38:59.434Z,22.62
2022-08-04T18:42:00.994Z,22.45
2022-08-04T18:44:32.198Z,22.30
2022-08-04T18:47:22.469Z,22.17
2022-08-04T18:51:00.701Z,22.04
2022-08-04T18:52:42.044Z,21.91
2022-08-04T18:55:55.457Z,21.80
2022-08-04T18:58:07.378Z,21.66
2022-08-04T19:00:45.776Z,21.55
2022-08-04T19:03:16.614Z,21.44
2022-08-04T19:05:51.714Z,21.34
2022-08-04T19:08:34.967Z,21.26
2022-08-04T19:11:38.481Z,21.15
2022-08-04T19:13:58.012Z,21.04
2022-08-04T19:16:32.502Z,20.94
2022-08-04T19:19:05.534Z,20.83
2022-08-04T19:22:00.349Z,20.74
2022-08-04T19:24:32.129Z,20.62
2022-08-04T19:27:07.240Z,20.52
2022-08-04T19:29:40.632Z,20.43
2022-08-04T19:32:14.154Z,20.34
2022-08-04T19:34:47.294Z,20.23
2022-08-04T19:37:57.816Z,20.14
2022-08-04T19:40:09.605Z,20.03
2022-08-04T19:42:38.562Z,19.95
2022-08-04T19:45:10.097Z,19.87
2022-08-04T19:48:18.192Z,19.80
2022-08-04T19:50:33.238Z,19.71
2022-08-04T19:53:01.577Z,19.63
2022-08-04T19:55:37.503Z,19.58
2022-08-04T19:58:08.468Z,19.50
2022-08-04T20:00:38.036Z,19.42
2022-08-04T20:03:09.846Z,19.35
2022-08-04T20:05:54.821Z,19.29
2022-08-04T20:08:26.681Z,19.23
2022-08-04T20:10:57.967Z,19.18
2022-08-04T20:13:37.054Z,19.12
2022-08-04T20:19:00.960Z,18.95
2022-08-04T20:21:36.498Z,18.88
2022-08-04T20:24:37.725Z,18.82
2022-08-04T20:27:15.283Z,18.78
2022-08-04T20:29:46.246Z,18.68
2022-08-04T20:32:25.389Z,18.60
2022-08-04T20:34:54.859Z,18.54
2022-08-04T20:37:24.744Z,18.48
2022-08-04T20:39:55.245Z,18.44
2022-08-04T20:42:33.818Z,18.38
2022-08-04T20:45:02.521Z,18.34
2022-08-04T20:47:35.049Z,18.30
2022-08-04T20:50:05.807Z,18.26
2022-08-04T20:52:37.981Z,18.23
2022-08-04T20:55:07.423Z,18.19
2022-08-04T20:57:48.411Z,18.15
2022-08-04T21:00:29.629Z,18.12
2022-08-04T21:02:59.328Z,18.09
2022-08-04T21:05:27.412Z,18.06
2022-08-04T21:07:57.142Z,18.04
2022-08-04T21:10:25.717Z,18.00
2022-08-04T21:12:54.506Z,17.97
2022-08-04T21:15:26.236Z,17.93
2022-08-04T21:18:14.203Z,17.91
2022-08-04T21:20:43.357Z,17.89
2022-08-04T21:23:11.208Z,17.86
2022-08-04T21:25:42.739Z,17.83
2022-08-04T21:28:12.151Z,17.78
2022-08-04T21:30:54.311Z,17.75
2022-08-04T21:33:49.618Z,17.72
2022-08-04T21:36:14.646Z,17.69
2022-08-04T21:38:51.255Z,17.65
2022-08-04T21:41:25.110Z,17.65
2022-08-04T21:43:56.122Z,17.63
2022-08-04T21:46:25.462Z,17.62
2022-08-04T21:48:58.440Z,17.60
2022-08-04T21:51:59.808Z,17.58
2022-08-04T21:54:17.578Z,17.55
2022-08-04T21:56:51.627Z,17.55
2022-08-04T21:59:28.513Z,17.53
2022-08-04T22:02:01.175Z,17.52
2022-08-04T22:04:29.645Z,17.50
2022-08-04T22:07:02.669Z,17.47
2022-08-04T22:09:38.768Z,17.43
2022-08-04T22:12:11.974Z,17.41
2022-08-04T22:14:40.420Z,17.39
2022-08-04T22:17:13.894Z,17.37
2022-08-04T22:19:55.499Z,17.36
2022-08-04T22:22:28.974Z,17.33
2022-08-04T22:25:12.479Z,17.31
2022-08-04T22:28:02.926Z,17.29
2022-08-04T22:30:36.891Z,17.27
2022-08-04T22:33:08.314Z,17.25
2022-08-04T22:35:48.988Z,17.23
2022-08-04T22:38:35.831Z,17.20
2022-08-04T22:41:10.882Z,17.18
2022-08-04T22:43:40.393Z,17.16
2022-08-04T22:46:11.923Z,17.15
2022-08-04T22:48:43.378Z,17.13
2022-08-04T22:51:12.754Z,17.11
2022-08-04T22:53:48.648Z,17.09
2022-08-04T22:56:37.374Z,17.08
2022-08-04T22:59:11.190Z,17.07
2022-08-04T23:02:00.445Z,17.06
2022-08-04T23:04:30.843Z,17.06
2022-08-04T23:06:58.815Z,17.05
2022-08-04T23:09:49.997Z,17.02
2022-08-04T23:12:30.446Z,16.99
2022-08-04T23:14:59.037Z,16.97
2022-08-04T23:17:28.433Z,16.95
2022-08-04T23:19:59.278Z,16.92
2022-08-04T23:22:42.101Z,16.91
2022-08-04T23:25:15.836Z,16.88
2022-08-04T23:27:50.519Z,16.87
2022-08-04T23:30:21.756Z,16.88
2022-08-04T23:32:53.314Z,16.90
2022-08-04T23:35:22.588Z,16.90
2022-08-04T23:37:56.822Z,16.89
2022-08-04T23:40:33.181Z,16.89
2022-08-04T23:43:17.356Z,16.89
2022-08-04T23:46:03.855Z,16.92
2022-08-04T23:48:36.864Z,16.95
2022-08-04T23:51:14.229Z,16.96
2022-08-04T23:54:02.267Z,16.99
2022-08-04T23:56:33.980Z,17.02
2022-08-04T23:59:03.969Z,17.02
